createdAt,value
2022-12-14T00:01:45.105Z,-2.82
2022-12-14T00:04:17.143Z,-2.85
2022-12-14T00:06:44.615Z,-2.79
2022-12-14T00:09:12.109Z,-2.78
2022-12-14T00:11:39.532Z,-2.93
2022-12-14T00:14:07.068Z,-2.96
2022-12-14T00:16:35.211Z,-3.03
2022-12-14T00:19:03.115Z,-3.01
2022-12-14T00:21:30.565Z,-2.99
2022-12-14T00:23:59.411Z,-2.98
2022-12-14T00:26:29.762Z,-3.02
2022-12-14T00:28:59.358Z,-2.95
2022-12-14T00:31:26.835Z,-2.96
2022-12-14T00:33:55.606Z,-3.11
2022-12-14T00:36:23.407Z,-3.20
2022-12-14T00:38:52.093Z,-3.23
2022-12-14T00:41:19.617Z,-3.17
2022-12-14T00:43:49.573Z,-3.16
2022-12-14T00:46:18.101Z,-3.19
2022-12-14T00:48:46.122Z,-3.32
2022-12-14T00:51:14.959Z,-3.31
2022-12-14T00:53:44.472Z,-3.25
2022-12-14T00:56:12.201Z,-3.29
2022-12-14T00:58:40.189Z,-3.15
2022-12-14T01:01:13.574Z,-3.14
2022-12-14T01:03:42.509Z,-3.10
2022-12-14T01:06:21.673Z,-3.09
2022-12-14T01:08:49.642Z,-3.11
2022-12-14T01:11:17.044Z,-3.15
2022-12-14T01:13:44.498Z,-3.30
2022-12-14T01:16:17.382Z,-3.39
2022-12-14T01:18:44.881Z,-3.29
2022-12-14T01:21:13.676Z,-3.26
2022-12-14T01:23:42.043Z,-3.22
2022-12-14T01:26:10.176Z,-3.21
2022-12-14T01:28:37.685Z,-3.32
2022-12-14T01:31:26.670Z,-3.26
2022-12-14T01:33:54.672Z,-3.52
2022-12-14T01:36:24.742Z,-3.49
2022-12-14T01:38:54.550Z,-3.39
2022-12-14T01:41:42.507Z,-3.42
2022-12-14T01:44:10.172Z,-3.34
2022-12-14T01:47:12.227Z,-3.45
2022-12-14T01:50:05.171Z,-3.36
2022-12-14T01:52:52.219Z,-3.28
2022-12-14T01:55:23.235Z,-3.19
2022-12-14T01:57:59.532Z,-3.21
2022-12-14T02:00:27.233Z,-3.17
2022-12-14T02:03:02.785Z,-3.04
2022-12-14T02:05:31.631Z,-3.02
2022-12-14T02:07:59.228Z,-3.14
2022-12-14T02:10:28.270Z,-2.99
2022-12-14T02:13:03.197Z,-2.97
2022-12-14T02:15:30.786Z,-2.94
2022-12-14T02:17:58.377Z,-2.94
2022-12-14T02:20:29.503Z,-2.95
2022-12-14T02:23:25.405Z,-2.96
2022-12-14T02:26:19.903Z,-2.92
2022-12-14T02:29:06.183Z,-2.90
2022-12-14T02:31:43.999Z,-2.92
2022-12-14T02:34:20.690Z,-2.94
2022-12-14T02:37:02.650Z,-3.01
2022-12-14T02:39:36.089Z,-2.99
2022-12-14T02:42:11.181Z,-3.10
2022-12-14T02:44:58.827Z,-3.16
2022-12-14T02:47:31.487Z,-3.24
2022-12-14T02:50:04.919Z,-3.23
2022-12-14T02:52:48.696Z,-3.17
2022-12-14T02:55:22.950Z,-3.10
2022-12-14T02:58:12.864Z,-3.00
2022-12-14T03:00:40.818Z,-3.05
2022-12-14T03:03:08.720Z,-3.06
2022-12-14T03:05:36.499Z,-3.03
2022-12-14T03:08:12.563Z,-3.17
2022-12-14T03:10:44.524Z,-3.01
2022-12-14T03:13:24.187Z,-3.11
2022-12-14T03:16:01.034Z,-3.29
2022-12-14T03:18:34.340Z,-3.15
2022-12-14T03:21:03.369Z,-3.32
2022-12-14T03:23:33.192Z,-3.18
2022-12-14T03:26:12.620Z,-3.15
2022-12-14T03:28:53.199Z,-3.18
2022-12-14T03:31:25.551Z,-3.15
2022-12-14T03:33:54.976Z,-3.16
2022-12-14T03:36:29.045Z,-3.17
2022-12-14T03:38:59.296Z,-3.22
2022-12-14T03:42:01.101Z,-3.18
2022-12-14T03:44:58.094Z,-3.19
2022-12-14T03:47:34.805Z,-3.16
2022-12-14T03:50:08.247Z,-3.20
2022-12-14T03:53:12.697Z,-3.18
2022-12-14T03:56:11.298Z,-3.12
2022-12-14T03:59:12.938Z,-3.11
2022-12-14T04:01:55.753Z,-3.10
2022-12-14T04:05:08.498Z,-3.12
2022-12-14T04:07:49.155Z,-3.13
2022-12-14T04:10:41.125Z,-3.09
2022-12-14T04:13:39.417Z,-3.06
2022-12-14T04:16:33.692Z,-2.99
2022-12-14T04:19:06.982Z,-2.94
2022-12-14T04:21:54.217Z,-2.90
2022-12-14T04:25:06.930Z,-2.94
2022-12-14T04:27:37.629Z,-2.96
2022-12-14T04:30:07.206Z,-3.10
2022-12-14T04:32:41.812Z,-2.96
2022-12-14T04:35:18.117Z,-2.97
2022-12-14T04:37:49.532Z,-3.05
2022-12-14T04:40:22.208Z,-2.94
2022-12-14T04:43:00.206Z,-2.96
2022-12-14T04:45:31.737Z,-3.02
2022-12-14T04:48:43.763Z,-2.98
2022-12-14T04:51:13.712Z,-2.92
2022-12-14T04:53:44.269Z,-2.91
2022-12-14T04:56:52.314Z,-2.82
2022-12-14T04:59:19.880Z,-2.83
2022-12-14T05:01:50.169Z,-2.81
2022-12-14T05:04:23.796Z,-2.79
2022-12-14T05:07:11.199Z,-2.73
2022-12-14T05:10:01.004Z,-2.72
2022-12-14T05:12:54.424Z,-2.78
2022-12-14T05:15:35.045Z,-2.79
2022-12-14T05:18:04.565Z,-2.74
2022-12-14T05:20:32.118Z,-2.86
2022-12-14T05:22:59.515Z,-2.86
2022-12-14T05:25:27.502Z,-2.88
2022-12-14T05:27:54.954Z,-2.99
2022-12-14T05:30:22.557Z,-2.92
2022-12-14T05:32:50.279Z,-2.91
2022-12-14T05:35:17.814Z,-2.98
2022-12-14T05:37:45.359Z,-3.11
2022-12-14T05:40:17.127Z,-2.94
2022-12-14T05:42:46.884Z,-2.97
2022-12-14T05:45:17.223Z,-3.07
2022-12-14T05:47:45.116Z,-3.07
2022-12-14T05:50:12.586Z,-3.22
2022-12-14T05:52:39.987Z,-3.07
2022-12-14T05:55:07.901Z,-3.14
2022-12-14T05:57:35.340Z,-3.16
2022-12-14T06:00:04.690Z,-3.23
2022-12-14T06:02:32.222Z,-3.24
2022-12-14T06:04:59.657Z,-3.21
2022-12-14T06:07:28.332Z,-3.20
2022-12-14T06:09:55.917Z,-3.24
2022-12-14T06:12:23.466Z,-3.12
2022-12-14T06:14:51.407Z,-3.07
2022-12-14T06:17:18.848Z,-3.24
2022-12-14T06:19:49.805Z,-3.15
2022-12-14T06:22:18.804Z,-3.18
2022-12-14T06:24:46.411Z,-3.27
2022-12-14T06:27:13.817Z,-3.29
2022-12-14T06:29:41.233Z,-3.50
2022-12-14T06:32:08.711Z,-3.29
2022-12-14T06:34:39.763Z,-3.28
2022-12-14T06:37:08.185Z,-3.48
2022-12-14T06:39:35.576Z,-3.37
2022-12-14T06:42:03.532Z,-3.50
2022-12-14T06:44:30.950Z,-3.31
2022-12-14T06:46:58.526Z,-3.30
2022-12-14T06:49:26.227Z,-3.32
2022-12-14T06:51:53.813Z,-3.38
2022-12-14T06:54:21.497Z,-3.34
2022-12-14T06:56:49.072Z,-3.39
2022-12-14T06:59:17.763Z,-3.45
2022-12-14T07:01:49.855Z,-3.52
2022-12-14T07:04:21.108Z,-3.39
2022-12-14T07:06:48.816Z,-3.34
2022-12-14T07:09:16.259Z,-3.31
2022-12-14T07:11:43.940Z,-3.34
2022-12-14T07:14:16.503Z,-3.38
2022-12-14T07:16:48.336Z,-3.54
2022-12-14T07:19:17.811Z,-3.51
2022-12-14T07:21:45.216Z,-3.65
2022-12-14T07:24:12.815Z,-3.68
2022-12-14T07:26:40.310Z,-3.77
2022-12-14T07:29:09.249Z,-3.81
2022-12-14T07:31:36.900Z,-3.88
2022-12-14T07:34:04.362Z,-3.95
2022-12-14T07:36:33.035Z,-3.98
2022-12-14T07:39:00.458Z,-3.96
2022-12-14T07:41:31.085Z,-4.09
2022-12-14T07:44:00.553Z,-3.97
2022-12-14T07:46:29.617Z,-3.98
2022-12-14T07:48:58.224Z,-4.31
2022-12-14T07:51:28.781Z,-4.03
2022-12-14T07:53:56.668Z,-4.13
2022-12-14T07:56:27.056Z,-4.01
2022-12-14T07:58:56.401Z,-4.02
2022-12-14T08:01:25.882Z,-4.20
2022-12-14T08:03:59.665Z,-4.13
2022-12-14T08:06:28.898Z,-4.27
2022-12-14T08:08:56.732Z,-4.24
2022-12-14T08:11:25.031Z,-4.36
2022-12-14T08:14:00.435Z,-4.38
2022-12-14T08:16:28.288Z,-4.27
2022-12-14T08:18:56.850Z,-4.24
2022-12-14T08:21:25.540Z,-4.33
2022-12-14T08:23:54.487Z,-4.40
2022-12-14T08:26:22.966Z,-4.27
2022-12-14T08:28:50.436Z,-4.38
2022-12-14T08:31:19.856Z,-4.30
2022-12-14T08:33:47.949Z,-4.27
2022-12-14T08:36:18.179Z,-4.37
2022-12-14T08:38:45.718Z,-4.33
2022-12-14T08:41:16.542Z,-4.29
2022-12-14T08:43:55.652Z,-4.18
2022-12-14T08:46:24.097Z,-4.02
2022-12-14T08:48:52.887Z,-3.99
2022-12-14T08:51:21.234Z,-4.01
2022-12-14T08:53:48.779Z,-3.96
2022-12-14T08:56:18.496Z,-3.89
2022-12-14T08:58:46.272Z,-3.91
2022-12-14T09:01:20.562Z,-3.74
2022-12-14T09:03:48.329Z,-3.64
2022-12-14T09:06:18.888Z,-3.58
2022-12-14T09:08:49.662Z,-3.66
2022-12-14T09:11:19.739Z,-3.57
2022-12-14T09:13:47.814Z,-3.64
2022-12-14T09:16:18.293Z,-3.40
2022-12-14T09:18:47.103Z,-3.35
2022-12-14T09:21:15.319Z,-3.26
2022-12-14T09:23:42.904Z,-3.28
2022-12-14T09:26:12.610Z,-3.14
2022-12-14T09:28:41.959Z,-3.00
2022-12-14T09:31:14.263Z,-2.94
2022-12-14T09:33:41.891Z,-2.88
2022-12-14T09:36:14.726Z,-2.82
2022-12-14T09:38:48.921Z,-2.76
2022-12-14T09:41:34.214Z,-2.67
2022-12-14T09:44:36.998Z,-2.62
2022-12-14T09:47:25.977Z,-2.48
2022-12-14T09:50:10.373Z,-2.46
2022-12-14T09:52:45.414Z,-2.28
2022-12-14T09:55:20.667Z,-2.25
2022-12-14T09:57:51.547Z,-2.30
2022-12-14T10:00:20.086Z,-2.14
2022-12-14T10:03:04.662Z,-2.05
2022-12-14T10:05:53.225Z,-2.00
2022-12-14T10:08:36.497Z,-1.92
2022-12-14T10:11:21.882Z,-1.92
2022-12-14T10:14:13.815Z,-1.83
2022-12-14T10:16:51.602Z,-1.77
2022-12-14T10:19:40.669Z,-1.78
2022-12-14T10:22:12.677Z,-1.72
2022-12-14T10:24:46.297Z,-1.83
2022-12-14T10:27:25.136Z,-1.66
2022-12-14T10:30:05.065Z,-1.66
2022-12-14T10:32:35.386Z,-1.65
2022-12-14T10:35:17.964Z,-1.61
2022-12-14T10:37:53.653Z,-1.39
2022-12-14T10:40:34.276Z,-1.39
2022-12-14T10:43:15.673Z,-1.27
2022-12-14T10:45:56.981Z,-1.15
2022-12-14T10:48:46.463Z,-1.00
2022-12-14T10:51:22.387Z,-1.02
2022-12-14T10:53:53.401Z,-0.91
2022-12-14T10:56:25.976Z,-0.91
2022-12-14T10:59:12.348Z,-0.74
2022-12-14T11:01:40.247Z,-0.92
2022-12-14T11:04:22.213Z,-0.79
2022-12-14T11:06:49.691Z,-0.83
2022-12-14T11:09:21.539Z,-0.80
2022-12-14T11:11:49.372Z,-0.75
2022-12-14T11:14:17.812Z,-0.81
2022-12-14T11:16:45.306Z,-0.72
2022-12-14T11:19:18.996Z,-0.79
2022-12-14T11:21:50.101Z,-0.75
2022-12-14T11:24:23.099Z,-0.88
2022-12-14T11:26:52.917Z,-0.75
2022-12-14T11:29:27.790Z,-0.80
2022-12-14T11:31:55.313Z,-0.65
2022-12-14T11:34:39.139Z,-0.57
2022-12-14T11:37:24.915Z,-0.48
2022-12-14T11:39:57.813Z,-0.44
2022-12-14T11:42:26.067Z,-0.36
2022-12-14T11:44:54.261Z,-0.42
2022-12-14T11:47:26.521Z,-0.47
2022-12-14T11:49:55.403Z,-0.59
2022-12-14T11:52:38.151Z,-0.44
2022-12-14T11:55:26.724Z,-0.44
2022-12-14T11:57:59.671Z,-0.42
2022-12-14T12:00:46.755Z,-0.41
2022-12-14T12:03:31.002Z,-0.60
2022-12-14T12:06:07.533Z,-0.77
2022-12-14T12:08:37.871Z,-0.63
2022-12-14T12:11:15.907Z,-0.58
2022-12-14T12:13:45.535Z,-0.63
2022-12-14T12:16:21.852Z,-0.52
2022-12-14T12:19:20.125Z,-0.55
2022-12-14T12:21:48.234Z,-0.68
2022-12-14T12:24:25.433Z,-0.72
2022-12-14T12:26:56.600Z,-0.65
2022-12-14T12:29:36.744Z,-0.78
2022-12-14T12:32:11.166Z,-0.63
2022-12-14T12:35:12.388Z,-0.64
2022-12-14T12:37:50.941Z,-0.57
2022-12-14T12:40:29.887Z,-0.51
2022-12-14T12:43:02.950Z,-0.47
2022-12-14T12:45:30.502Z,-0.38
2022-12-14T12:48:04.371Z,-0.33
2022-12-14T12:50:37.723Z,-0.33
2022-12-14T12:53:26.615Z,-0.44
2022-12-14T12:55:59.032Z,-0.41
2022-12-14T12:58:29.461Z,-0.40
2022-12-14T13:01:00.950Z,-0.51
2022-12-14T13:03:37.412Z,-0.32
2022-12-14T13:06:13.970Z,-0.35
2022-12-14T13:08:43.979Z,-0.35
2022-12-14T13:11:28.340Z,-0.41
2022-12-14T13:14:00.743Z,-0.31
2022-12-14T13:16:34.183Z,-0.42
2022-12-14T13:19:52.539Z,-0.38
2022-12-14T13:22:28.375Z,-0.36
2022-12-14T13:24:59.802Z,-0.38
2022-12-14T13:27:40.790Z,-0.41
2022-12-14T13:30:50.094Z,-0.29
2022-12-14T13:33:35.913Z,-0.23
2022-12-14T13:36:18.796Z,-0.13
2022-12-14T13:39:10.760Z,-0.17
2022-12-14T13:41:56.691Z,-0.20
2022-12-14T13:44:34.772Z,-0.18
2022-12-14T13:47:05.794Z,-0.26
2022-12-14T13:49:33.483Z,-0.20
2022-12-14T13:52:01.441Z,-0.17
2022-12-14T13:54:33.253Z,-0.14
2022-12-14T13:57:05.688Z,-0.12
2022-12-14T13:59:36.740Z,-0.10
2022-12-14T14:02:05.949Z,-0.07
2022-12-14T14:04:35.729Z,-0.18
2022-12-14T14:07:25.162Z,-0.12
2022-12-14T14:09:55.801Z,-0.24
2022-12-14T14:12:38.571Z,-0.26
2022-12-14T14:15:09.447Z,-0.14
2022-12-14T14:17:45.729Z,-0.17
2022-12-14T14:20:39.721Z,-0.20
2022-12-14T14:23:26.252Z,-0.26
2022-12-14T14:26:16.237Z,-0.45
2022-12-14T14:28:43.862Z,-0.33
2022-12-14T14:31:17.215Z,-0.28
2022-12-14T14:33:49.405Z,-0.22
2022-12-14T14:36:33.638Z,-0.32
2022-12-14T14:39:18.932Z,-0.25
2022-12-14T14:41:52.435Z,-0.30
2022-12-14T14:44:25.269Z,-0.29
2022-12-14T14:46:52.902Z,-0.43
2022-12-14T14:49:32.151Z,-0.30
2022-12-14T14:52:38.941Z,-0.28
2022-12-14T14:55:53.403Z,-0.40
2022-12-14T14:58:27.816Z,-0.52
2022-12-14T15:01:16.526Z,-0.57
2022-12-14T15:04:04.264Z,-0.60
2022-12-14T15:06:43.072Z,-0.66
2022-12-14T15:09:13.434Z,-0.65
2022-12-14T15:11:45.838Z,-0.69
2022-12-14T15:14:26.151Z,-0.87
2022-12-14T15:16:53.649Z,-0.84
2022-12-14T15:19:36.736Z,-0.96
2022-12-14T15:22:06.829Z,-1.12
2022-12-14T15:24:39.195Z,-1.02
2022-12-14T15:27:20.210Z,-1.17
2022-12-14T15:29:49.406Z,-1.17
2022-12-14T15:32:18.707Z,-1.22
2022-12-14T15:34:53.497Z,-1.40
2022-12-14T15:37:45.839Z,-1.43
2022-12-14T15:40:27.766Z,-1.39
2022-12-14T15:42:57.235Z,-1.55
2022-12-14T15:45:30.910Z,-1.44
2022-12-14T15:48:14.473Z,-1.46
2022-12-14T15:50:44.122Z,-1.63
2022-12-14T15:53:25.411Z,-1.57
2022-12-14T15:56:00.169Z,-1.64
2022-12-14T15:58:34.921Z,-1.65
2022-12-14T16:01:26.137Z,-1.67
2022-12-14T16:03:56.036Z,-1.82
2022-12-14T16:06:24.622Z,-1.81
2022-12-14T16:09:02.388Z,-1.82
2022-12-14T16:11:38.013Z,-1.98
2022-12-14T16:14:28.164Z,-1.97
2022-12-14T16:16:55.895Z,-2.15
2022-12-14T16:19:28.258Z,-1.99
2022-12-14T16:22:25.076Z,-2.05
2022-12-14T16:25:11.593Z,-2.20
2022-12-14T16:27:50.110Z,-2.18
2022-12-14T16:30:27.755Z,-2.32
2022-12-14T16:33:16.271Z,-2.30
2022-12-14T16:35:45.590Z,-2.32
2022-12-14T16:38:16.537Z,-2.37
2022-12-14T16:40:54.520Z,-2.49
2022-12-14T16:43:40.393Z,-2.55
2022-12-14T16:46:13.766Z,-2.39
2022-12-14T16:48:44.537Z,-2.41
2022-12-14T16:51:18.562Z,-2.48
2022-12-14T16:54:01.628Z,-2.49
2022-12-14T16:56:45.059Z,-2.55
2022-12-14T16:59:26.022Z,-2.69
2022-12-14T17:01:54.077Z,-2.72
2022-12-14T17:04:22.077Z,-2.78
2022-12-14T17:06:54.982Z,-2.86
2022-12-14T17:09:24.958Z,-3.03
2022-12-14T17:11:55.014Z,-2.91
2022-12-14T17:14:22.573Z,-2.93
2022-12-14T17:16:53.158Z,-3.00
2022-12-14T17:19:25.237Z,-2.89
2022-12-14T17:21:52.786Z,-2.88
2022-12-14T17:24:22.078Z,-2.90
2022-12-14T17:26:51.023Z,-2.92
2022-12-14T17:29:27.892Z,-2.87
2022-12-14T17:31:57.890Z,-3.23
2022-12-14T17:34:25.599Z,-3.24
2022-12-14T17:36:53.364Z,-3.58
2022-12-14T17:39:21.054Z,-3.62
2022-12-14T17:41:50.627Z,-3.17
2022-12-14T17:44:20.377Z,-3.35
2022-12-14T17:46:52.216Z,-3.21
2022-12-14T17:49:34.141Z,-3.12
2022-12-14T17:52:07.804Z,-3.09
2022-12-14T17:54:35.727Z,-3.12
2022-12-14T17:57:03.296Z,-3.19
2022-12-14T17:59:30.914Z,-3.18
2022-12-14T18:01:58.549Z,-3.17
2022-12-14T18:04:26.194Z,-3.16
2022-12-14T18:06:53.712Z,-3.30
2022-12-14T18:09:21.252Z,-3.52
2022-12-14T18:12:14.344Z,-3.55
2022-12-14T18:14:36.289Z,-3.71
2022-12-14T18:17:08.240Z,-3.90
2022-12-14T18:19:38.995Z,-3.99
2022-12-14T18:22:07.331Z,-4.02
2022-12-14T18:24:35.186Z,-3.99
2022-12-14T18:27:02.710Z,-3.92
2022-12-14T18:29:31.113Z,-3.91
2022-12-14T18:31:58.816Z,-4.05
2022-12-14T18:34:26.272Z,-3.80
2022-12-14T18:36:53.847Z,-3.80
2022-12-14T18:39:21.340Z,-3.78
2022-12-14T18:41:49.050Z,-3.76
2022-12-14T18:44:16.667Z,-3.74
2022-12-14T18:46:44.324Z,-3.65
2022-12-14T18:49:16.988Z,-3.63
2022-12-14T18:51:44.568Z,-3.59
2022-12-14T18:54:12.111Z,-3.55
2022-12-14T18:56:42.026Z,-3.57
2022-12-14T18:59:09.972Z,-3.59
2022-12-14T19:01:37.536Z,-3.56
2022-12-14T19:04:07.644Z,-3.58
2022-12-14T19:06:45.036Z,-3.55
2022-12-14T19:09:14.209Z,-3.50
2022-12-14T19:11:42.124Z,-3.68
2022-12-14T19:14:10.200Z,-3.55
2022-12-14T19:16:38.261Z,-3.77
2022-12-14T19:19:06.289Z,-3.70
2022-12-14T19:21:33.819Z,-3.84
2022-12-14T19:24:01.413Z,-3.90
2022-12-14T19:26:29.512Z,-3.94
2022-12-14T19:28:57.079Z,-3.97
2022-12-14T19:31:24.724Z,-4.03
2022-12-14T19:33:53.709Z,-4.03
2022-12-14T19:36:21.376Z,-4.16
2022-12-14T19:38:49.543Z,-4.07
2022-12-14T19:41:20.360Z,-4.06
2022-12-14T19:43:48.619Z,-4.04
2022-12-14T19:46:17.618Z,-4.00
2022-12-14T19:48:45.614Z,-4.04
2022-12-14T19:51:14.257Z,-4.10
2022-12-14T19:53:43.484Z,-4.15
2022-12-14T19:56:13.477Z,-4.10
2022-12-14T19:58:41.192Z,-4.13
2022-12-14T20:01:14.062Z,-4.09
2022-12-14T20:03:41.903Z,-4.18
2022-12-14T20:06:09.498Z,-4.00
2022-12-14T20:08:37.187Z,-4.07
2022-12-14T20:11:10.102Z,-3.95
2022-12-14T20:13:37.731Z,-3.96
2022-12-14T20:16:06.095Z,-3.90
2022-12-14T20:18:33.784Z,-3.91
2022-12-14T20:21:06.922Z,-3.91
2022-12-14T20:23:36.000Z,-3.94
2022-12-14T20:26:09.988Z,-3.86
2022-12-14T20:28:37.757Z,-3.87
2022-12-14T20:31:10.027Z,-4.01
2022-12-14T20:33:38.744Z,-3.93
2022-12-14T20:36:06.854Z,-3.98
2022-12-14T20:38:34.408Z,-3.99
2022-12-14T20:41:06.509Z,-4.19
2022-12-14T20:43:35.947Z,-4.34
2022-12-14T20:46:05.374Z,-4.16
2022-12-14T20:48:33.144Z,-4.13
2022-12-14T20:51:03.626Z,-4.22
2022-12-14T20:53:32.465Z,-4.13
2022-12-14T20:56:04.352Z,-4.06
2022-12-14T20:58:32.218Z,-4.01
2022-12-14T21:01:06.333Z,-4.03
2022-12-14T21:03:34.384Z,-3.99
2022-12-14T21:06:02.389Z,-4.04
2022-12-14T21:08:31.607Z,-4.20
2022-12-14T21:11:21.246Z,-4.13
2022-12-14T21:13:48.901Z,-4.28
2022-12-14T21:16:16.545Z,-4.07
2022-12-14T21:18:44.034Z,-4.05
2022-12-14T21:21:11.786Z,-4.04
2022-12-14T21:23:40.809Z,-4.01
2022-12-14T21:26:08.328Z,-4.09
2022-12-14T21:28:35.720Z,-4.07
2022-12-14T21:31:04.860Z,-4.24
2022-12-14T21:33:32.684Z,-4.24
2022-12-14T21:36:00.498Z,-4.18
2022-12-14T21:38:28.029Z,-4.18
2022-12-14T21:41:14.921Z,-4.22
2022-12-14T21:43:42.699Z,-4.33
2022-12-14T21:46:10.203Z,-4.40
2022-12-14T21:48:38.064Z,-4.39
2022-12-14T21:51:09.914Z,-4.34
2022-12-14T21:53:38.052Z,-4.33
2022-12-14T21:56:25.059Z,-4.32
2022-12-14T21:58:54.114Z,-4.34
2022-12-14T22:01:21.869Z,-4.42
2022-12-14T22:03:52.673Z,-4.42
2022-12-14T22:06:20.170Z,-4.38
2022-12-14T22:08:47.579Z,-4.36
2022-12-14T22:11:15.276Z,-4.40
2022-12-14T22:13:42.797Z,-4.44
2022-12-14T22:16:11.551Z,-4.50
2022-12-14T22:18:39.053Z,-4.54
2022-12-14T22:21:06.860Z,-4.62
2022-12-14T22:23:35.833Z,-4.72
2022-12-14T22:26:07.369Z,-4.71
2022-12-14T22:28:34.782Z,-4.80
2022-12-14T22:31:03.727Z,-5.10
2022-12-14T22:33:31.846Z,-4.82
2022-12-14T22:35:59.843Z,-4.73
2022-12-14T22:38:27.252Z,-4.68
2022-12-14T22:41:01.548Z,-4.62
2022-12-14T22:43:35.373Z,-4.71
2022-12-14T22:46:05.084Z,-4.66
2022-12-14T22:48:33.846Z,-4.57
2022-12-14T22:51:05.005Z,-4.60
2022-12-14T22:53:33.406Z,-4.57
2022-12-14T22:56:06.842Z,-4.62
2022-12-14T22:58:34.472Z,-4.63
2022-12-14T23:01:02.042Z,-4.80
2022-12-14T23:03:30.047Z,-4.70
2022-12-14T23:06:01.989Z,-4.77
2022-12-14T23:08:30.270Z,-4.70
2022-12-14T23:11:16.379Z,-4.69
2022-12-14T23:14:02.628Z,-4.72
2022-12-14T23:16:49.972Z,-4.79
2022-12-14T23:19:36.509Z,-4.83
2022-12-14T23:22:23.199Z,-4.90
2022-12-14T23:25:09.311Z,-4.72
2022-12-14T23:27:55.433Z,-4.78
2022-12-14T23:30:41.629Z,-4.92
2022-12-14T23:33:28.147Z,-4.81
2022-12-14T23:36:14.431Z,-4.77
2022-12-14T23:39:00.665Z,-4.74
2022-12-14T23:41:46.770Z,-4.77
2022-12-14T23:44:32.845Z,-4.75
2022-12-14T23:47:19.004Z,-4.72
2022-12-14T23:50:05.132Z,-4.84
2022-12-14T23:52:51.212Z,-4.80
2022-12-14T23:55:37.231Z,-4.82
2022-12-14T23:58:23.614Z,-4.84
